sensor_id;sensor_type;location;lat;lon;timestamp;P1;durP1;ratioP1;P2;durP2;ratioP2
23594;SDS011;11975;47.674;9.472;2022-09-17T00:00:23;20.90;;;19.73;;
23594;SDS011;11975;47.674;9.472;2022-09-17T00:02:50;21.25;;;20.05;;
23594;SDS011;11975;47.674;9.472;2022-09-17T00:05:19;19.98;;;18.88;;
23594;SDS011;11975;47.674;9.472;2022-09-17T00:07:45;20.15;;;19.05;;
23594;SDS011;11975;47.674;9.472;2022-09-17T00:10:11;19.85;;;18.70;;
23594;SDS011;11975;47.674;9.472;2022-09-17T00:12:36;19.55;;;18.45;;
23594;SDS011;11975;47.674;9.472;2022-09-17T00:15:02;20.08;;;18.98;;
23594;SDS011;11975;47.674;9.472;2022-09-17T00:17:28;20.83;;;19.67;;
23594;SDS011;11975;47.674;9.472;2022-09-17T00:19:54;21.42;;;20.23;;
23594;SDS011;11975;47.674;9.472;2022-09-17T00:22:20;19.50;;;18.40;;
23594;SDS011;11975;47.674;9.472;2022-09-17T00:24:46;20.35;;;19.25;;
23594;SDS011;11975;47.674;9.472;2022-09-17T00:27:12;20.50;;;19.10;;
23594;SDS011;11975;47.674;9.472;2022-09-17T00:29:38;20.67;;;19.55;;
23594;SDS011;11975;47.674;9.472;2022-09-17T00:32:04;19.90;;;18.80;;
23594;SDS011;11975;47.674;9.472;2022-09-17T00:34:30;19.58;;;18.48;;
23594;SDS011;11975;47.674;9.472;2022-09-17T00:36:56;19.48;;;18.38;;
23594;SDS011;11975;47.674;9.472;2022-09-17T00:39:22;22.15;;;20.85;;
23594;SDS011;11975;47.674;9.472;2022-09-17T00:41:48;19.17;;;18.13;;
23594;SDS011;11975;47.674;9.472;2022-09-17T00:47:20;20.00;;;18.90;;
23594;SDS011;11975;47.674;9.472;2022-09-17T00:49:50;20.33;;;19.23;;
23594;SDS011;11975;47.674;9.472;2022-09-17T00:52:21;19.45;;;18.35;;
23594;SDS011;11975;47.674;9.472;2022-09-17T00:54:54;19.58;;;18.48;;
23594;SDS011;11975;47.674;9.472;2022-09-17T00:57:23;19.83;;;18.42;;
23594;SDS011;11975;47.674;9.472;2022-09-17T00:59:49;20.60;;;19.40;;
23594;SDS011;11975;47.674;9.472;2022-09-17T01:02:15;20.33;;;19.23;;
23594;SDS011;11975;47.674;9.472;2022-09-17T01:04:41;20.63;;;19.45;;
23594;SDS011;11975;47.674;9.472;2022-09-17T01:09:42;19.50;;;18.40;;
23594;SDS011;11975;47.674;9.472;2022-09-17T01:17:16;21.23;;;20.02;;
23594;SDS011;11975;47.674;9.472;2022-09-17T01:28:50;19.98;;;18.88;;
23594;SDS011;11975;47.674;9.472;2022-09-17T01:33:59;21.38;;;20.17;;
23594;SDS011;11975;47.674;9.472;2022-09-17T01:39:26;20.38;;;19.20;;
23594;SDS011;11975;47.674;9.472;2022-09-17T01:47:34;19.40;;;18.30;;
23594;SDS011;11975;47.674;9.472;2022-09-17T01:50:04;19.92;;;18.83;;
23594;SDS011;11975;47.674;9.472;2022-09-17T01:52:33;19.40;;;18.30;;
23594;SDS011;11975;47.674;9.472;2022-09-17T01:55:02;18.92;;;17.92;;
23594;SDS011;11975;47.674;9.472;2022-09-17T01:58:14;19.33;;;18.23;;
23594;SDS011;11975;47.674;9.472;2022-09-17T02:00:25;19.30;;;18.20;;
23594;SDS011;11975;47.674;9.472;2022-09-17T02:03:03;19.48;;;18.38;;
23594;SDS011;11975;47.674;9.472;2022-09-17T02:08:29;20.02;;;18.92;;
23594;SDS011;11975;47.674;9.472;2022-09-17T02:11:07;19.55;;;18.45;;
23594;SDS011;11975;47.674;9.472;2022-09-17T02:13:38;20.60;;;19.40;;
23594;SDS011;11975;47.674;9.472;2022-09-17T02:16:12;19.50;;;18.40;;
23594;SDS011;11975;47.674;9.472;2022-09-17T02:21:27;19.52;;;18.42;;
23594;SDS011;11975;47.674;9.472;2022-09-17T02:26:48;19.40;;;18.30;;
23594;SDS011;11975;47.674;9.472;2022-09-17T02:29:31;20.23;;;19.13;;
23594;SDS011;11975;47.674;9.472;2022-09-17T02:31:59;20.08;;;18.98;;
23594;SDS011;11975;47.674;9.472;2022-09-17T02:34:26;20.05;;;18.95;;
23594;SDS011;11975;47.674;9.472;2022-09-17T02:36:54;18.65;;;17.65;;
23594;SDS011;11975;47.674;9.472;2022-09-17T02:39:20;19.63;;;18.52;;
23594;SDS011;11975;47.674;9.472;2022-09-17T02:44:26;19.35;;;18.27;;
23594;SDS011;11975;47.674;9.472;2022-09-17T02:47:10;19.77;;;18.67;;
23594;SDS011;11975;47.674;9.472;2022-09-17T02:55:26;18.92;;;17.92;;
23594;SDS011;11975;47.674;9.472;2022-09-17T03:00:41;19.60;;;18.50;;
23594;SDS011;11975;47.674;9.472;2022-09-17T03:03:13;20.17;;;18.98;;
23594;SDS011;11975;47.674;9.472;2022-09-17T03:05:45;19.80;;;18.70;;
23594;SDS011;11975;47.674;9.472;2022-09-17T03:08:12;21.92;;;19.98;;
23594;SDS011;11975;47.674;9.472;2022-09-17T03:10:39;20.13;;;19.02;;
23594;SDS011;11975;47.674;9.472;2022-09-17T03:13:05;19.20;;;18.13;;
23594;SDS011;11975;47.674;9.472;2022-09-17T03:15:31;18.90;;;17.90;;
23594;SDS011;11975;47.674;9.472;2022-09-17T03:17:57;19.67;;;18.58;;
23594;SDS011;11975;47.674;9.472;2022-09-17T03:20:23;20.23;;;19.13;;
23594;SDS011;11975;47.674;9.472;2022-09-17T03:22:50;21.08;;;19.88;;
23594;SDS011;11975;47.674;9.472;2022-09-17T03:25:16;20.70;;;19.50;;
23594;SDS011;11975;47.674;9.472;2022-09-17T03:27:42;20.13;;;19.02;;
23594;SDS011;11975;47.674;9.472;2022-09-17T03:30:08;20.33;;;19.23;;
23594;SDS011;11975;47.674;9.472;2022-09-17T03:32:34;19.88;;;18.77;;
23594;SDS011;11975;47.674;9.472;2022-09-17T03:35:00;21.13;;;19.92;;
23594;SDS011;11975;47.674;9.472;2022-09-17T03:37:26;21.75;;;20.48;;
23594;SDS011;11975;47.674;9.472;2022-09-17T03:39:52;21.08;;;19.88;;
23594;SDS011;11975;47.674;9.472;2022-09-17T03:42:18;20.67;;;19.58;;
23594;SDS011;11975;47.674;9.472;2022-09-17T03:44:43;21.08;;;19.88;;
23594;SDS011;11975;47.674;9.472;2022-09-17T03:47:10;20.50;;;19.40;;
23594;SDS011;11975;47.674;9.472;2022-09-17T03:49:37;19.98;;;18.88;;
23594;SDS011;11975;47.674;9.472;2022-09-17T03:52:03;21.17;;;19.98;;
23594;SDS011;11975;47.674;9.472;2022-09-17T03:54:28;20.35;;;19.25;;
23594;SDS011;11975;47.674;9.472;2022-09-17T03:56:54;20.02;;;18.92;;
23594;SDS011;11975;47.674;9.472;2022-09-17T03:59:20;20.42;;;19.33;;
23594;SDS011;11975;47.674;9.472;2022-09-17T04:01:47;20.50;;;19.30;;
23594;SDS011;11975;47.674;9.472;2022-09-17T04:04:13;19.98;;;18.88;;
23594;SDS011;11975;47.674;9.472;2022-09-17T04:06:39;19.60;;;18.50;;
23594;SDS011;11975;47.674;9.472;2022-09-17T04:09:05;19.55;;;18.45;;
23594;SDS011;11975;47.674;9.472;2022-09-17T04:11:31;20.20;;;19.10;;
23594;SDS011;11975;47.674;9.472;2022-09-17T04:13:57;19.77;;;18.67;;
23594;SDS011;11975;47.674;9.472;2022-09-17T04:16:22;19.63;;;18.52;;
23594;SDS011;11975;47.674;9.472;2022-09-17T04:18:48;20.02;;;18.92;;
23594;SDS011;11975;47.674;9.472;2022-09-17T04:21:14;19.25;;;18.15;;
23594;SDS011;11975;47.674;9.472;2022-09-17T04:23:40;19.63;;;18.52;;
23594;SDS011;11975;47.674;9.472;2022-09-17T04:26:06;20.77;;;19.58;;
23594;SDS011;11975;47.674;9.472;2022-09-17T04:28:32;19.23;;;18.13;;
23594;SDS011;11975;47.674;9.472;2022-09-17T04:30:58;21.33;;;20.13;;
23594;SDS011;11975;47.674;9.472;2022-09-17T04:33:24;20.58;;;19.45;;
23594;SDS011;11975;47.674;9.472;2022-09-17T04:35:50;22.63;;;21.35;;
23594;SDS011;11975;47.674;9.472;2022-09-17T04:38:16;25.02;;;23.63;;
23594;SDS011;11975;47.674;9.472;2022-09-17T04:40:43;25.93;;;24.43;;
23594;SDS011;11975;47.674;9.472;2022-09-17T04:43:11;23.10;;;21.80;;
23594;SDS011;11975;47.674;9.472;2022-09-17T04:45:37;20.77;;;19.63;;
23594;SDS011;11975;47.674;9.472;2022-09-17T04:48:03;22.25;;;21.05;;
23594;SDS011;11975;47.674;9.472;2022-09-17T04:50:29;24.70;;;23.30;;
23594;SDS011;11975;47.674;9.472;2022-09-17T04:52:56;20.73;;;19.60;;
23594;SDS011;11975;47.674;9.472;2022-09-17T04:55:22;20.17;;;19.08;;
23594;SDS011;11975;47.674;9.472;2022-09-17T04:57:49;23.77;;;22.48;;
23594;SDS011;11975;47.674;9.472;2022-09-17T05:00:16;23.50;;;22.20;;
23594;SDS011;11975;47.674;9.472;2022-09-17T05:02:47;20.98;;;19.77;;
23594;SDS011;11975;47.674;9.472;2022-09-17T05:05:15;21.17;;;19.98;;
23594;SDS011;11975;47.674;9.472;2022-09-17T05:07:41;22.45;;;21.15;;
23594;SDS011;11975;47.674;9.472;2022-09-17T05:10:08;22.15;;;20.92;;
23594;SDS011;11975;47.674;9.472;2022-09-17T05:12:35;20.40;;;19.30;;
23594;SDS011;11975;47.674;9.472;2022-09-17T05:15:01;23.13;;;21.83;;
23594;SDS011;11975;47.674;9.472;2022-09-17T05:17:27;24.15;;;22.75;;
23594;SDS011;11975;47.674;9.472;2022-09-17T05:19:53;23.58;;;22.27;;
23594;SDS011;11975;47.674;9.472;2022-09-17T05:22:19;25.15;;;23.75;;
23594;SDS011;11975;47.674;9.472;2022-09-17T05:24:45;21.05;;;19.85;;
23594;SDS011;11975;47.674;9.472;2022-09-17T05:27:11;23.05;;;21.70;;
23594;SDS011;11975;47.674;9.472;2022-09-17T05:29:37;21.35;;;20.15;;
23594;SDS011;11975;47.674;9.472;2022-09-17T05:32:04;25.70;;;24.30;;
23594;SDS011;11975;47.674;9.472;2022-09-17T05:34:30;21.77;;;20.58;;
23594;SDS011;11975;47.674;9.472;2022-09-17T05:36:56;25.63;;;24.23;;
23594;SDS011;11975;47.674;9.472;2022-09-17T05:39:22;22.13;;;20.90;;
23594;SDS011;11975;47.674;9.472;2022-09-17T05:44:17;23.02;;;21.73;;
23594;SDS011;11975;47.674;9.472;2022-09-17T05:46:44;21.10;;;19.92;;
23594;SDS011;11975;47.674;9.472;2022-09-17T05:49:10;20.17;;;19.08;;
23594;SDS011;11975;47.674;9.472;2022-09-17T05:51:36;19.10;;;18.08;;
23594;SDS011;11975;47.674;9.472;2022-09-17T05:54:02;21.38;;;20.17;;
23594;SDS011;11975;47.674;9.472;2022-09-17T05:56:28;19.27;;;18.17;;
23594;SDS011;11975;47.674;9.472;2022-09-17T05:58:55;19.88;;;18.77;;
23594;SDS011;11975;47.674;9.472;2022-09-17T06:01:21;21.88;;;20.35;;
23594;SDS011;11975;47.674;9.472;2022-09-17T06:03:48;19.75;;;18.65;;
23594;SDS011;11975;47.674;9.472;2022-09-17T06:06:14;21.88;;;20.67;;
23594;SDS011;11975;47.674;9.472;2022-09-17T06:08:40;20.33;;;19.23;;
23594;SDS011;11975;47.674;9.472;2022-09-17T06:11:06;20.08;;;18.98;;
23594;SDS011;11975;47.674;9.472;2022-09-17T06:13:33;21.15;;;19.95;;
23594;SDS011;11975;47.674;9.472;2022-09-17T06:15:59;20.33;;;19.23;;
23594;SDS011;11975;47.674;9.472;2022-09-17T06:18:27;20.48;;;19.38;;
23594;SDS011;11975;47.674;9.472;2022-09-17T06:23:20;21.27;;;20.07;;
23594;SDS011;11975;47.674;9.472;2022-09-17T06:26:04;20.20;;;19.10;;
23594;SDS011;11975;47.674;9.472;2022-09-17T06:28:30;19.55;;;18.45;;
23594;SDS011;11975;47.674;9.472;2022-09-17T06:31:00;20.40;;;19.30;;
23594;SDS011;11975;47.674;9.472;2022-09-17T06:33:27;19.75;;;18.65;;
23594;SDS011;11975;47.674;9.472;2022-09-17T06:36:00;18.70;;;17.63;;
23594;SDS011;11975;47.674;9.472;2022-09-17T06:38:27;19.83;;;18.73;;
23594;SDS011;11975;47.674;9.472;2022-09-17T06:40:55;20.10;;;19.00;;
23594;SDS011;11975;47.674;9.472;2022-09-17T06:43:21;18.92;;;17.85;;
23594;SDS011;11975;47.674;9.472;2022-09-17T06:45:51;21.43;;;20.23;;
23594;SDS011;11975;47.674;9.472;2022-09-17T06:48:17;20.55;;;19.45;;
23594;SDS011;11975;47.674;9.472;2022-09-17T06:50:43;18.40;;;17.40;;
23594;SDS011;11975;47.674;9.472;2022-09-17T06:53:09;23.92;;;22.63;;
23594;SDS011;11975;47.674;9.472;2022-09-17T06:55:35;25.25;;;23.85;;
23594;SDS011;11975;47.674;9.472;2022-09-17T06:58:01;25.27;;;23.88;;
23594;SDS011;11975;47.674;9.472;2022-09-17T07:00:26;28.17;;;26.52;;
23594;SDS011;11975;47.674;9.472;2022-09-17T07:02:56;25.85;;;24.38;;
23594;SDS011;11975;47.674;9.472;2022-09-17T07:05:22;26.17;;;24.70;;
23594;SDS011;11975;47.674;9.472;2022-09-17T07:07:49;23.15;;;21.85;;
23594;SDS011;11975;47.674;9.472;2022-09-17T07:10:15;21.60;;;20.40;;
23594;SDS011;11975;47.674;9.472;2022-09-17T07:12:41;22.00;;;20.80;;
23594;SDS011;11975;47.674;9.472;2022-09-17T07:15:07;24.73;;;23.33;;
23594;SDS011;11975;47.674;9.472;2022-09-17T07:17:38;22.58;;;21.33;;
23594;SDS011;11975;47.674;9.472;2022-09-17T07:20:05;24.58;;;23.17;;
23594;SDS011;11975;47.674;9.472;2022-09-17T07:22:32;21.15;;;19.95;;
23594;SDS011;11975;47.674;9.472;2022-09-17T07:24:58;22.40;;;21.20;;
23594;SDS011;11975;47.674;9.472;2022-09-17T07:27:28;27.83;;;26.23;;
23594;SDS011;11975;47.674;9.472;2022-09-17T07:29:54;24.80;;;23.40;;
23594;SDS011;11975;47.674;9.472;2022-09-17T07:32:20;26.90;;;25.38;;
23594;SDS011;11975;47.674;9.472;2022-09-17T07:34:47;26.40;;;24.80;;
23594;SDS011;11975;47.674;9.472;2022-09-17T07:37:14;27.37;;;25.87;;
23594;SDS011;11975;47.674;9.472;2022-09-17T07:39:40;26.15;;;24.67;;
23594;SDS011;11975;47.674;9.472;2022-09-17T07:42:07;23.87;;;22.57;;
23594;SDS011;11975;47.674;9.472;2022-09-17T07:44:33;24.73;;;23.33;;
23594;SDS011;11975;47.674;9.472;2022-09-17T07:46:59;27.70;;;26.13;;
23594;SDS011;11975;47.674;9.472;2022-09-17T07:49:25;25.33;;;23.92;;
23594;SDS011;11975;47.674;9.472;2022-09-17T07:51:51;24.63;;;23.23;;
23594;SDS011;11975;47.674;9.472;2022-09-17T07:54:17;27.75;;;26.15;;
23594;SDS011;11975;47.674;9.472;2022-09-17T07:56:43;29.37;;;27.73;;
23594;SDS011;11975;47.674;9.472;2022-09-17T07:59:09;22.30;;;21.10;;
23594;SDS011;11975;47.674;9.472;2022-09-17T08:01:35;19.15;;;18.10;;
23594;SDS011;11975;47.674;9.472;2022-09-17T08:04:01;18.42;;;17.33;;
23594;SDS011;11975;47.674;9.472;2022-09-17T08:06:28;22.70;;;21.42;;
23594;SDS011;11975;47.674;9.472;2022-09-17T08:08:55;23.10;;;21.80;;
23594;SDS011;11975;47.674;9.472;2022-09-17T08:11:22;26.20;;;24.70;;
23594;SDS011;11975;47.674;9.472;2022-09-17T08:13:50;22.42;;;21.17;;
23594;SDS011;11975;47.674;9.472;2022-09-17T08:18:43;18.50;;;17.50;;
23594;SDS011;11975;47.674;9.472;2022-09-17T08:21:14;16.48;;;15.57;;
23594;SDS011;11975;47.674;9.472;2022-09-17T08:23:41;18.73;;;17.70;;
23594;SDS011;11975;47.674;9.472;2022-09-17T08:26:26;24.17;;;22.83;;
23594;SDS011;11975;47.674;9.472;2022-09-17T08:28:52;22.67;;;21.27;;
23594;SDS011;11975;47.674;9.472;2022-09-17T08:31:20;27.95;;;26.35;;
23594;SDS011;11975;47.674;9.472;2022-09-17T08:33:47;21.83;;;20.63;;
23594;SDS011;11975;47.674;9.472;2022-09-17T08:36:13;27.08;;;25.58;;
23594;SDS011;11975;47.674;9.472;2022-09-17T08:38:40;26.52;;;25.02;;
23594;SDS011;11975;47.674;9.472;2022-09-17T08:41:11;26.13;;;24.65;;
23594;SDS011;11975;47.674;9.472;2022-09-17T08:44:00;28.92;;;27.33;;
23594;SDS011;11975;47.674;9.472;2022-09-17T08:49:32;29.02;;;27.42;;
23594;SDS011;11975;47.674;9.472;2022-09-17T09:00:15;25.42;;;24.02;;
23594;SDS011;11975;47.674;9.472;2022-09-17T09:08:13;25.58;;;24.17;;
23594;SDS011;11975;47.674;9.472;2022-09-17T09:10:46;27.77;;;26.17;;
23594;SDS011;11975;47.674;9.472;2022-09-17T09:13:16;27.13;;;25.63;;
23594;SDS011;11975;47.674;9.472;2022-09-17T09:15:45;27.17;;;25.67;;
23594;SDS011;11975;47.674;9.472;2022-09-17T09:20:50;22.92;;;21.63;;
23594;SDS011;11975;47.674;9.472;2022-09-17T09:23:19;23.27;;;21.98;;
23594;SDS011;11975;47.674;9.472;2022-09-17T09:25:52;24.55;;;23.15;;
23594;SDS011;11975;47.674;9.472;2022-09-17T09:33:51;26.70;;;25.20;;
23594;SDS011;11975;47.674;9.472;2022-09-17T09:36:18;21.33;;;20.13;;
23594;SDS011;11975;47.674;9.472;2022-09-17T09:38:51;19.00;;;18.00;;
23594;SDS011;11975;47.674;9.472;2022-09-17T09:41:26;18.17;;;17.17;;
23594;SDS011;11975;47.674;9.472;2022-09-17T09:44:01;20.08;;;18.98;;
23594;SDS011;11975;47.674;9.472;2022-09-17T09:57:13;16.60;;;15.70;;
23594;SDS011;11975;47.674;9.472;2022-09-17T09:59:42;16.30;;;15.40;;
23594;SDS011;11975;47.674;9.472;2022-09-17T10:02:08;18.05;;;17.05;;
23594;SDS011;11975;47.674;9.472;2022-09-17T10:04:34;18.52;;;17.52;;
23594;SDS011;11975;47.674;9.472;2022-09-17T10:09:28;21.02;;;19.83;;
23594;SDS011;11975;47.674;9.472;2022-09-17T10:12:04;17.58;;;16.58;;
23594;SDS011;11975;47.674;9.472;2022-09-17T10:14:34;19.65;;;18.55;;
23594;SDS011;11975;47.674;9.472;2022-09-17T10:17:12;19.48;;;18.38;;
23594;SDS011;11975;47.674;9.472;2022-09-17T10:20:06;20.33;;;19.23;;
23594;SDS011;11975;47.674;9.472;2022-09-17T10:22:45;21.80;;;20.60;;
23594;SDS011;11975;47.674;9.472;2022-09-17T10:28:01;22.83;;;21.52;;
23594;SDS011;11975;47.674;9.472;2022-09-17T10:30:28;19.30;;;18.20;;
23594;SDS011;11975;47.674;9.472;2022-09-17T10:33:14;21.52;;;20.33;;
23594;SDS011;11975;47.674;9.472;2022-09-17T10:35:53;23.30;;;22.00;;
23594;SDS011;11975;47.674;9.472;2022-09-17T10:38:28;26.75;;;25.25;;
23594;SDS011;11975;47.674;9.472;2022-09-17T10:41:09;21.73;;;20.52;;
23594;SDS011;11975;47.674;9.472;2022-09-17T10:43:35;23.13;;;21.83;;
23594;SDS011;11975;47.674;9.472;2022-09-17T10:46:01;26.38;;;24.88;;
23594;SDS011;11975;47.674;9.472;2022-09-17T10:48:30;22.65;;;21.38;;
23594;SDS011;11975;47.674;9.472;2022-09-17T10:50:58;19.65;;;18.55;;
23594;SDS011;11975;47.674;9.472;2022-09-17T10:53:24;20.90;;;19.73;;
23594;SDS011;11975;47.674;9.472;2022-09-17T10:55:53;21.05;;;19.88;;
23594;SDS011;11975;47.674;9.472;2022-09-17T10:58:33;22.65;;;21.38;;
23594;SDS011;11975;47.674;9.472;2022-09-17T11:01:21;27.20;;;25.70;;
23594;SDS011;11975;47.674;9.472;2022-09-17T11:12:00;25.20;;;23.80;;
23594;SDS011;11975;47.674;9.472;2022-09-17T11:25:54;20.60;;;19.48;;
23594;SDS011;11975;47.674;9.472;2022-09-17T11:36:42;24.38;;;23.02;;
23594;SDS011;11975;47.674;9.472;2022-09-17T11:39:24;21.05;;;19.85;;
23594;SDS011;11975;47.674;9.472;2022-09-17T11:42:22;22.63;;;21.35;;
23594;SDS011;11975;47.674;9.472;2022-09-17T11:44:52;21.35;;;20.15;;
23594;SDS011;11975;47.674;9.472;2022-09-17T11:50:01;22.55;;;21.27;;
23594;SDS011;11975;47.674;9.472;2022-09-17T11:52:44;19.52;;;18.42;;
23594;SDS011;11975;47.674;9.472;2022-09-17T11:55:18;18.95;;;17.95;;
23594;SDS011;11975;47.674;9.472;2022-09-17T11:57:47;19.13;;;18.08;;
23594;SDS011;11975;47.674;9.472;2022-09-17T12:00:18;18.65;;;17.65;;
23594;SDS011;11975;47.674;9.472;2022-09-17T12:05:27;20.25;;;19.15;;
23594;SDS011;11975;47.674;9.472;2022-09-17T12:08:02;25.77;;;24.38;;
23594;SDS011;11975;47.674;9.472;2022-09-17T12:13:41;25.17;;;23.77;;
23594;SDS011;11975;47.674;9.472;2022-09-17T12:19:01;23.58;;;22.27;;
23594;SDS011;11975;47.674;9.472;2022-09-17T12:21:37;25.55;;;24.15;;
23594;SDS011;11975;47.674;9.472;2022-09-17T12:26:43;21.67;;;20.48;;
23594;SDS011;11975;47.674;9.472;2022-09-17T12:32:16;17.42;;;16.48;;
23594;SDS011;11975;47.674;9.472;2022-09-17T12:34:57;21.27;;;20.08;;
23594;SDS011;11975;47.674;9.472;2022-09-17T12:37:32;18.27;;;17.27;;
23594;SDS011;11975;47.674;9.472;2022-09-17T12:45:13;24.27;;;22.92;;
23594;SDS011;11975;47.674;9.472;2022-09-17T12:51:06;28.13;;;26.52;;
23594;SDS011;11975;47.674;9.472;2022-09-17T12:53:41;24.95;;;23.55;;
23594;SDS011;11975;47.674;9.472;2022-09-17T12:58:53;18.33;;;17.33;;
23594;SDS011;11975;47.674;9.472;2022-09-17T13:01:31;25.25;;;23.85;;
23594;SDS011;11975;47.674;9.472;2022-09-17T13:04:11;23.77;;;22.42;;
23594;SDS011;11975;47.674;9.472;2022-09-17T13:09:55;25.00;;;23.60;;
23594;SDS011;11975;47.674;9.472;2022-09-17T13:12:35;29.80;;;28.10;;
23594;SDS011;11975;47.674;9.472;2022-09-17T13:23:35;29.67;;;27.98;;
23594;SDS011;11975;47.674;9.472;2022-09-17T13:26:04;28.83;;;27.23;;
23594;SDS011;11975;47.674;9.472;2022-09-17T13:31:07;25.83;;;24.38;;
23594;SDS011;11975;47.674;9.472;2022-09-17T13:33:49;26.42;;;24.92;;
23594;SDS011;11975;47.674;9.472;2022-09-17T13:38:57;22.58;;;21.27;;
23594;SDS011;11975;47.674;9.472;2022-09-17T13:41:23;24.23;;;22.77;;
23594;SDS011;11975;47.674;9.472;2022-09-17T13:43:50;28.40;;;26.80;;
23594;SDS011;11975;47.674;9.472;2022-09-17T13:46:21;26.25;;;24.77;;
23594;SDS011;11975;47.674;9.472;2022-09-17T13:48:49;27.85;;;26.25;;
23594;SDS011;11975;47.674;9.472;2022-09-17T13:54:00;29.70;;;28.00;;
23594;SDS011;11975;47.674;9.472;2022-09-17T13:56:37;22.35;;;21.13;;
23594;SDS011;11975;47.674;9.472;2022-09-17T13:59:09;29.60;;;27.85;;
23594;SDS011;11975;47.674;9.472;2022-09-17T14:04:32;26.05;;;24.55;;
23594;SDS011;11975;47.674;9.472;2022-09-17T14:09:49;29.58;;;27.88;;
23594;SDS011;11975;47.674;9.472;2022-09-17T14:12:48;27.23;;;25.73;;
23594;SDS011;11975;47.674;9.472;2022-09-17T14:20:50;29.98;;;28.27;;
23594;SDS011;11975;47.674;9.472;2022-09-17T14:23:18;28.33;;;26.73;;
23594;SDS011;11975;47.674;9.472;2022-09-17T14:25:46;27.13;;;25.55;;
23594;SDS011;11975;47.674;9.472;2022-09-17T14:28:25;29.58;;;27.88;;
23594;SDS011;11975;47.674;9.472;2022-09-17T14:30:57;28.50;;;26.90;;
23594;SDS011;11975;47.674;9.472;2022-09-17T14:33:26;24.47;;;23.07;;
23594;SDS011;11975;47.674;9.472;2022-09-17T14:36:00;28.75;;;27.15;;
23594;SDS011;11975;47.674;9.472;2022-09-17T14:38:38;28.33;;;26.75;;
23594;SDS011;11975;47.674;9.472;2022-09-17T14:43:47;23.90;;;22.58;;
23594;SDS011;11975;47.674;9.472;2022-09-17T14:46:21;25.52;;;24.10;;
23594;SDS011;11975;47.674;9.472;2022-09-17T14:48:48;28.02;;;26.42;;
23594;SDS011;11975;47.674;9.472;2022-09-17T14:54:30;28.92;;;27.33;;
23594;SDS011;11975;47.674;9.472;2022-09-17T14:56:30;29.42;;;27.73;;
23594;SDS011;11975;47.674;9.472;2022-09-17T14:58:57;29.83;;;28.13;;
23594;SDS011;11975;47.674;9.472;2022-09-17T15:01:24;31.95;;;30.15;;
23594;SDS011;11975;47.674;9.472;2022-09-17T15:06:41;28.00;;;26.40;;
23594;SDS011;11975;47.674;9.472;2022-09-17T15:09:14;31.48;;;29.67;;
23594;SDS011;11975;47.674;9.472;2022-09-17T15:11:53;31.67;;;29.88;;
23594;SDS011;11975;47.674;9.472;2022-09-17T15:14:21;30.48;;;28.77;;
23594;SDS011;11975;47.674;9.472;2022-09-17T15:16:50;29.17;;;27.58;;
23594;SDS011;11975;47.674;9.472;2022-09-17T15:19:21;30.30;;;28.50;;
23594;SDS011;11975;47.674;9.472;2022-09-17T15:27:33;28.65;;;27.05;;
23594;SDS011;11975;47.674;9.472;2022-09-17T15:30:02;30.58;;;28.83;;
23594;SDS011;11975;47.674;9.472;2022-09-17T15:32:31;21.92;;;20.73;;
23594;SDS011;11975;47.674;9.472;2022-09-17T15:37:41;28.02;;;26.42;;
23594;SDS011;11975;47.674;9.472;2022-09-17T15:40:25;27.70;;;26.17;;
23594;SDS011;11975;47.674;9.472;2022-09-17T15:45:38;25.30;;;23.83;;
23594;SDS011;11975;47.674;9.472;2022-09-17T15:50:55;27.48;;;25.92;;
23594;SDS011;11975;47.674;9.472;2022-09-17T15:53:23;28.60;;;27.00;;
23594;SDS011;11975;47.674;9.472;2022-09-17T15:58:36;27.33;;;25.80;;
23594;SDS011;11975;47.674;9.472;2022-09-17T16:11:13;27.58;;;25.98;;
23594;SDS011;11975;47.674;9.472;2022-09-17T16:13:46;24.25;;;22.90;;
23594;SDS011;11975;47.674;9.472;2022-09-17T16:16:18;21.05;;;19.83;;
23594;SDS011;11975;47.674;9.472;2022-09-17T16:18:45;22.35;;;21.13;;
23594;SDS011;11975;47.674;9.472;2022-09-17T16:21:14;20.92;;;19.73;;
23594;SDS011;11975;47.674;9.472;2022-09-17T16:23:41;20.55;;;19.42;;
23594;SDS011;11975;47.674;9.472;2022-09-17T16:26:27;21.38;;;20.17;;
23594;SDS011;11975;47.674;9.472;2022-09-17T16:28:55;18.50;;;17.50;;
23594;SDS011;11975;47.674;9.472;2022-09-17T16:31:26;19.55;;;18.45;;
23594;SDS011;11975;47.674;9.472;2022-09-17T16:33:52;17.52;;;16.55;;
23594;SDS011;11975;47.674;9.472;2022-09-17T16:36:19;19.00;;;17.98;;
23594;SDS011;11975;47.674;9.472;2022-09-17T16:38:45;18.25;;;17.25;;
23594;SDS011;11975;47.674;9.472;2022-09-17T16:41:11;19.25;;;18.20;;
23594;SDS011;11975;47.674;9.472;2022-09-17T16:43:37;21.65;;;20.45;;
23594;SDS011;11975;47.674;9.472;2022-09-17T16:46:08;22.30;;;21.10;;
23594;SDS011;11975;47.674;9.472;2022-09-17T16:48:35;20.00;;;18.90;;
23594;SDS011;11975;47.674;9.472;2022-09-17T16:51:10;20.10;;;18.97;;
23594;SDS011;11975;47.674;9.472;2022-09-17T16:53:37;19.17;;;18.08;;
23594;SDS011;11975;47.674;9.472;2022-09-17T16:56:07;18.33;;;17.33;;
23594;SDS011;11975;47.674;9.472;2022-09-17T16:58:34;18.95;;;17.92;;
23594;SDS011;11975;47.674;9.472;2022-09-17T17:01:06;18.25;;;17.25;;
23594;SDS011;11975;47.674;9.472;2022-09-17T17:03:39;19.73;;;18.63;;
23594;SDS011;11975;47.674;9.472;2022-09-17T17:06:06;22.42;;;21.20;;
23594;SDS011;11975;47.674;9.472;2022-09-17T17:08:39;23.00;;;21.70;;
23594;SDS011;11975;47.674;9.472;2022-09-17T17:11:05;23.42;;;22.13;;
23594;SDS011;11975;47.674;9.472;2022-09-17T17:13:31;23.15;;;21.85;;
23594;SDS011;11975;47.674;9.472;2022-09-17T17:15:57;18.58;;;17.58;;
23594;SDS011;11975;47.674;9.472;2022-09-17T17:18:23;22.83;;;21.52;;
23594;SDS011;11975;47.674;9.472;2022-09-17T17:20:49;21.20;;;20.00;;
23594;SDS011;11975;47.674;9.472;2022-09-17T17:23:15;21.42;;;20.23;;
23594;SDS011;11975;47.674;9.472;2022-09-17T17:25:41;21.80;;;20.50;;
23594;SDS011;11975;47.674;9.472;2022-09-17T17:28:07;20.67;;;19.55;;
23594;SDS011;11975;47.674;9.472;2022-09-17T17:30:33;19.63;;;18.52;;
23594;SDS011;11975;47.674;9.472;2022-09-17T17:32:59;18.42;;;17.42;;
23594;SDS011;11975;47.674;9.472;2022-09-17T17:35:25;20.73;;;19.60;;
23594;SDS011;11975;47.674;9.472;2022-09-17T17:37:51;20.65;;;19.50;;
23594;SDS011;11975;47.674;9.472;2022-09-17T17:40:17;18.98;;;17.95;;
23594;SDS011;11975;47.674;9.472;2022-09-17T17:42:43;20.02;;;18.92;;
23594;SDS011;11975;47.674;9.472;2022-09-17T17:45:11;21.50;;;20.30;;
23594;SDS011;11975;47.674;9.472;2022-09-17T17:47:38;20.92;;;19.73;;
23594;SDS011;11975;47.674;9.472;2022-09-17T17:50:04;21.85;;;20.65;;
23594;SDS011;11975;47.674;9.472;2022-09-17T17:52:30;20.30;;;19.20;;
23594;SDS011;11975;47.674;9.472;2022-09-17T17:54:56;21.70;;;20.50;;
23594;SDS011;11975;47.674;9.472;2022-09-17T17:57:22;22.70;;;21.42;;
23594;SDS011;11975;47.674;9.472;2022-09-17T17:59:48;23.20;;;21.90;;
23594;SDS011;11975;47.674;9.472;2022-09-17T18:02:14;23.50;;;22.20;;
23594;SDS011;11975;47.674;9.472;2022-09-17T18:04:40;22.45;;;21.15;;
23594;SDS011;11975;47.674;9.472;2022-09-17T18:07:06;20.88;;;19.67;;
23594;SDS011;11975;47.674;9.472;2022-09-17T18:09:32;21.65;;;20.45;;
23594;SDS011;11975;47.674;9.472;2022-09-17T18:11:58;21.98;;;20.77;;